createdAt,value
2022-10-15T00:00:40.881Z,98.8
2022-10-15T00:01:42.963Z,98.8
2022-10-15T00:02:44.917Z,98.8
2022-10-15T00:03:47.027Z,98.8
2022-10-15T00:04:48.877Z,98.8
2022-10-15T00:05:50.889Z,98.8
2022-10-15T00:06:53.885Z,98.8
2022-10-15T00:07:56.086Z,98.8
2022-10-15T00:08:57.880Z,98.8
2022-10-15T00:10:00.884Z,98.8
2022-10-15T00:11:02.888Z,98.8
2022-10-15T00:12:04.887Z,98.8
2022-10-15T00:13:07.099Z,98.8
2022-10-15T00:14:08.888Z,98.8
2022-10-15T00:15:10.883Z,98.8
2022-10-15T00:16:12.890Z,98.8
2022-10-15T00:17:14.898Z,98.8
2022-10-15T00:18:16.955Z,98.8
2022-10-15T00:19:18.891Z,98.8
2022-10-15T00:20:20.904Z,98.8
2022-10-15T00:21:22.912Z,98.8
2022-10-15T00:22:25.252Z,98.8
2022-10-15T00:23:26.900Z,98.8
2022-10-15T00:24:28.900Z,98.8
2022-10-15T00:25:30.908Z,98.8
2022-10-15T00:26:32.896Z,98.8
2022-10-15T00:27:34.896Z,98.8
2022-10-15T00:28:38.017Z,98.8
2022-10-15T00:29:40.905Z,98.8
2022-10-15T00:30:42.901Z,98.8
2022-10-15T00:31:44.902Z,98.8
2022-10-15T00:32:46.902Z,98.8
2022-10-15T00:33:48.917Z,98.8
2022-10-15T00:34:50.907Z,98.8
2022-10-15T00:35:52.908Z,98.8
2022-10-15T00:36:54.898Z,98.8
2022-10-15T00:37:57.000Z,98.8
2022-10-15T00:38:58.906Z,98.8
2022-10-15T00:41:02.910Z,98.8
2022-10-15T00:42:04.914Z,98.8
2022-10-15T00:43:07.095Z,98.8
2022-10-15T00:44:08.908Z,98.8
2022-10-15T00:45:10.917Z,98.8
2022-10-15T00:46:12.964Z,98.8
2022-10-15T00:47:14.910Z,98.8
2022-10-15T00:48:16.955Z,98.8
2022-10-15T00:49:18.911Z,98.8
2022-10-15T00:50:22.918Z,98.8
2022-10-15T00:51:25.917Z,98.8
2022-10-15T00:52:27.923Z,98.8
2022-10-15T00:53:31.007Z,98.8
2022-10-15T00:54:33.915Z,98.8
2022-10-15T00:55:35.916Z,98.8
2022-10-15T00:56:37.939Z,98.8
2022-10-15T00:57:40.919Z,98.8
2022-10-15T00:58:42.963Z,98.8
2022-10-15T00:59:44.922Z,98.8
2022-10-15T01:00:47.030Z,98.8
2022-10-15T01:01:48.919Z,98.8
2022-10-15T01:02:50.927Z,98.8
2022-10-15T01:03:52.959Z,98.8
2022-10-15T01:04:54.924Z,98.8
2022-10-15T01:05:56.924Z,98.8
2022-10-15T01:06:58.923Z,98.8
2022-10-15T01:08:00.967Z,98.8
2022-10-15T01:09:02.975Z,98.8
2022-10-15T01:10:17.186Z,98.8
2022-10-15T01:11:06.929Z,98.8
2022-10-15T01:12:08.923Z,98.8
2022-10-15T01:13:11.957Z,98.8
2022-10-15T01:14:13.936Z,98.8
2022-10-15T01:15:15.925Z,98.8
2022-10-15T01:16:17.932Z,98.8
2022-10-15T01:17:20.124Z,98.8
2022-10-15T01:18:21.964Z,98.8
2022-10-15T01:19:23.935Z,98.8
2022-10-15T01:20:25.942Z,98.8
2022-10-15T01:21:27.941Z,98.8
2022-10-15T01:22:29.952Z,98.8
2022-10-15T01:23:31.939Z,98.8
2022-10-15T01:24:34.937Z,98.8
2022-10-15T01:25:37.963Z,98.8
2022-10-15T01:26:40.939Z,98.8
2022-10-15T01:27:42.942Z,98.8
2022-10-15T01:28:44.994Z,98.8
2022-10-15T01:29:46.941Z,98.8
2022-10-15T01:30:48.950Z,98.8
2022-10-15T01:31:50.950Z,98.8
2022-10-15T01:32:52.945Z,98.8
2022-10-15T01:33:54.999Z,98.8
2022-10-15T01:34:56.962Z,98.8
2022-10-15T01:36:00.218Z,98.8
2022-10-15T01:37:01.960Z,98.8
2022-10-15T01:38:03.947Z,98.8
2022-10-15T01:39:05.981Z,98.8
2022-10-15T01:40:07.957Z,98.8
2022-10-15T01:41:09.982Z,98.8
2022-10-15T01:42:11.956Z,98.8
2022-10-15T01:43:14.023Z,98.8
2022-10-15T01:44:17.958Z,98.8
2022-10-15T01:45:19.993Z,98.8
2022-10-15T01:46:21.954Z,98.8
2022-10-15T01:47:24.314Z,98.8
2022-10-15T01:48:25.952Z,98.8
2022-10-15T01:49:28.112Z,98.8
2022-10-15T01:50:30.005Z,98.8
2022-10-15T01:51:31.962Z,98.8
2022-10-15T01:52:33.957Z,98.8
2022-10-15T01:53:35.959Z,98.8
2022-10-15T01:54:37.980Z,98.8
2022-10-15T01:55:40.958Z,98.8
2022-10-15T01:56:42.971Z,98.8
2022-10-15T01:57:44.973Z,98.8
2022-10-15T01:58:47.009Z,98.8
2022-10-15T01:59:48.963Z,98.8
2022-10-15T02:00:51.000Z,98.8
2022-10-15T02:01:55.015Z,98.8
2022-10-15T02:02:54.969Z,98.8
2022-10-15T02:03:56.999Z,98.8
2022-10-15T02:04:59.020Z,98.8
2022-10-15T02:06:00.966Z,98.8
2022-10-15T02:07:02.969Z,98.8
2022-10-15T02:08:04.997Z,98.8
2022-10-15T02:09:06.966Z,98.8
2022-10-15T02:10:10.174Z,98.8
2022-10-15T02:11:11.976Z,98.8
2022-10-15T02:12:13.977Z,98.8
2022-10-15T02:13:15.976Z,98.8
2022-10-15T02:14:17.974Z,98.8
2022-10-15T02:15:20.038Z,98.8
2022-10-15T02:16:21.978Z,98.8
2022-10-15T02:17:23.981Z,98.8
2022-10-15T02:18:25.977Z,98.8
2022-10-15T02:19:27.980Z,98.8
2022-10-15T02:20:30.014Z,98.8
2022-10-15T02:21:31.976Z,98.8
2022-10-15T02:22:34.017Z,98.8
2022-10-15T02:23:36.031Z,98.8
2022-10-15T02:24:37.995Z,98.8
2022-10-15T02:25:41.986Z,98.8
2022-10-15T02:26:43.983Z,98.8
2022-10-15T02:27:46.021Z,98.8
2022-10-15T02:28:48.036Z,98.8
2022-10-15T02:29:49.987Z,98.8
2022-10-15T02:30:51.988Z,98.8
2022-10-15T02:31:53.987Z,98.8
2022-10-15T02:32:56.021Z,98.8
2022-10-15T02:33:57.999Z,98.8
2022-10-15T02:34:59.999Z,98.8
2022-10-15T02:36:05.002Z,98.8
2022-10-15T02:37:06.988Z,98.8
2022-10-15T02:38:09.109Z,98.8
2022-10-15T02:39:11.032Z,98.8
2022-10-15T02:40:13.001Z,98.8
2022-10-15T02:41:15.993Z,98.8
2022-10-15T02:42:18.003Z,98.8
2022-10-15T02:43:20.030Z,98.8
2022-10-15T02:44:22.019Z,98.8
2022-10-15T02:45:24.002Z,98.8
2022-10-15T02:46:26.006Z,98.8
2022-10-15T02:47:28.001Z,98.8
2022-10-15T02:48:30.052Z,98.8
2022-10-15T02:49:32.004Z,98.8
2022-10-15T02:50:35.012Z,98.8
2022-10-15T02:51:39.008Z,98.8
2022-10-15T02:52:41.009Z,98.8
2022-10-15T02:53:43.003Z,98.8
2022-10-15T02:54:44.999Z,98.8
2022-10-15T02:55:47.010Z,98.8
2022-10-15T02:56:49.051Z,98.8
2022-10-15T02:57:51.045Z,98.8
2022-10-15T02:58:53.013Z,98.8
2022-10-15T02:59:55.015Z,98.8
2022-10-15T03:00:58.103Z,98.8
2022-10-15T03:02:00.015Z,98.8
2022-10-15T03:03:03.015Z,98.8
2022-10-15T03:04:05.046Z,98.8
2022-10-15T03:05:07.017Z,98.8
2022-10-15T03:06:09.011Z,98.8
2022-10-15T03:07:11.027Z,98.8
2022-10-15T03:08:13.051Z,98.8
2022-10-15T03:09:15.043Z,98.8
2022-10-15T03:10:51.996Z,98.8
2022-10-15T03:11:10.698Z,98.8
2022-10-15T03:11:30.039Z,98.8
2022-10-15T03:12:05.212Z,98.8
2022-10-15T03:12:30.030Z,98.8
2022-10-15T03:13:30.091Z,98.8
2022-10-15T03:16:32.132Z,98.8
2022-10-15T03:18:35.625Z,98.8
2022-10-15T03:19:34.437Z,98.8
2022-10-15T03:20:36.442Z,98.8
2022-10-15T03:21:38.439Z,98.8
2022-10-15T03:22:40.448Z,98.8
2022-10-15T03:23:42.458Z,98.8
2022-10-15T03:24:44.448Z,98.8
2022-10-15T03:25:46.442Z,98.8
2022-10-15T03:26:48.485Z,98.8
2022-10-15T03:27:51.443Z,98.8
2022-10-15T03:28:53.493Z,98.8
2022-10-15T03:29:55.464Z,98.8
2022-10-15T03:30:57.445Z,98.8
2022-10-15T03:31:59.515Z,98.8
2022-10-15T03:33:01.451Z,98.8
2022-10-15T03:34:03.475Z,98.8
2022-10-15T03:35:05.454Z,98.8
2022-10-15T03:36:08.451Z,98.8
2022-10-15T03:37:10.485Z,98.8
2022-10-15T03:38:12.488Z,98.8
2022-10-15T03:39:14.454Z,98.8
2022-10-15T03:40:18.467Z,98.8
2022-10-15T03:41:20.453Z,98.8
2022-10-15T03:42:22.786Z,98.8
2022-10-15T03:43:24.476Z,98.8
2022-10-15T03:44:26.463Z,98.8
2022-10-15T03:45:28.450Z,98.8
2022-10-15T03:48:53.590Z,98.8
2022-10-15T03:50:02.901Z,98.8
2022-10-15T03:52:06.884Z,98.8
2022-10-15T03:53:09.901Z,98.8
2022-10-15T03:54:11.879Z,98.8
2022-10-15T03:55:13.879Z,98.8
2022-10-15T03:56:15.884Z,98.8
2022-10-15T03:57:17.895Z,98.8
2022-10-15T03:58:19.953Z,98.8
2022-10-15T03:59:21.879Z,98.8
2022-10-15T04:00:23.883Z,98.8
2022-10-15T04:01:25.976Z,98.8
2022-10-15T04:02:28.889Z,98.8
2022-10-15T04:03:32.911Z,98.8
2022-10-15T04:04:34.895Z,98.8
2022-10-15T04:05:36.894Z,98.8
2022-10-15T04:06:38.895Z,98.8
2022-10-15T04:07:40.896Z,98.8
2022-10-15T04:08:42.974Z,98.8
2022-10-15T04:09:44.895Z,98.8
2022-10-15T04:10:46.883Z,98.8
2022-10-15T04:11:48.894Z,98.8
2022-10-15T04:12:50.903Z,98.8
2022-10-15T04:13:52.941Z,98.8
2022-10-15T04:14:55.900Z,98.8
2022-10-15T04:15:57.897Z,98.8
2022-10-15T04:16:59.917Z,98.8
2022-10-15T04:18:02.932Z,98.8
2022-10-15T04:19:07.383Z,98.8
2022-10-15T04:20:06.897Z,98.8
2022-10-15T04:21:08.894Z,98.8
2022-10-15T04:22:10.896Z,98.8
2022-10-15T04:23:12.930Z,98.8
2022-10-15T04:24:14.896Z,98.8
2022-10-15T04:25:16.906Z,98.8
2022-10-15T04:26:18.898Z,98.8
2022-10-15T04:27:20.904Z,98.8
2022-10-15T04:28:22.964Z,98.8
2022-10-15T04:29:24.914Z,98.8
2022-10-15T04:30:26.910Z,98.8
2022-10-15T04:31:28.911Z,98.8
2022-10-15T04:32:31.941Z,98.8
2022-10-15T04:33:34.990Z,98.8
2022-10-15T04:34:37.909Z,98.8
2022-10-15T04:35:51.924Z,98.8
2022-10-15T04:37:46.577Z,98.8
2022-10-15T04:40:00.054Z,98.8
2022-10-15T04:41:03.027Z,98.8
2022-10-15T04:42:05.022Z,98.8
2022-10-15T04:43:07.035Z,98.8
2022-10-15T04:44:30.101Z,98.8
2022-10-15T04:45:30.102Z,98.8
2022-10-15T04:46:30.098Z,98.8
2022-10-15T04:47:30.112Z,98.8
2022-10-15T04:48:30.131Z,98.8
2022-10-15T04:49:30.127Z,98.8
2022-10-15T04:50:30.103Z,98.8
2022-10-15T04:51:30.099Z,98.8
2022-10-15T04:52:30.104Z,98.8
2022-10-15T04:53:30.154Z,98.8
2022-10-15T04:54:30.103Z,98.8
2022-10-15T04:55:31.054Z,98.8
2022-10-15T04:56:33.047Z,98.8
2022-10-15T04:57:35.046Z,98.8
2022-10-15T04:58:37.062Z,98.8
2022-10-15T04:59:39.064Z,98.8
2022-10-15T05:00:43.047Z,98.8
2022-10-15T05:01:45.193Z,98.8
2022-10-15T05:02:47.061Z,98.8
2022-10-15T05:03:49.062Z,98.8
2022-10-15T05:04:51.047Z,98.8
2022-10-15T05:05:53.056Z,98.8
2022-10-15T05:06:55.052Z,98.8
2022-10-15T05:07:57.091Z,98.8
2022-10-15T05:09:01.076Z,98.8
2022-10-15T05:10:05.056Z,98.8
2022-10-15T05:11:07.050Z,98.8
2022-10-15T05:12:09.058Z,98.8
2022-10-15T05:13:12.097Z,98.8
2022-10-15T05:14:14.070Z,98.8
2022-10-15T05:15:16.057Z,98.8
2022-10-15T05:16:18.064Z,98.8
2022-10-15T05:17:20.066Z,98.8
2022-10-15T05:18:22.078Z,98.8
2022-10-15T05:19:24.071Z,98.8
2022-10-15T05:20:32.969Z,98.8
2022-10-15T05:21:35.044Z,98.8
2022-10-15T05:22:36.968Z,98.8
2022-10-15T05:23:38.992Z,98.8
2022-10-15T05:24:40.973Z,98.8
2022-10-15T05:25:42.980Z,98.8
2022-10-15T05:26:46.967Z,98.8
2022-10-15T05:27:48.979Z,98.8
2022-10-15T05:28:51.036Z,98.8
2022-10-15T05:29:52.975Z,98.8
2022-10-15T05:30:54.986Z,98.8
2022-10-15T05:31:56.996Z,98.8
2022-10-15T05:32:59.001Z,98.8
2022-10-15T05:34:00.986Z,98.8
2022-10-15T05:35:02.985Z,98.8
2022-10-15T05:36:04.978Z,98.8
2022-10-15T05:37:06.971Z,98.8
2022-10-15T05:38:08.992Z,98.8
2022-10-15T05:39:11.022Z,98.8
2022-10-15T05:40:18.239Z,98.8
2022-10-15T05:41:16.979Z,98.8
2022-10-15T05:42:18.982Z,98.8
2022-10-15T05:43:22.010Z,98.8
2022-10-15T05:44:23.977Z,98.8
2022-10-15T05:45:26.111Z,98.8
2022-10-15T05:46:28.020Z,98.8
2022-10-15T05:47:29.985Z,98.8
2022-10-15T05:48:32.986Z,98.8
2022-10-15T05:49:34.987Z,98.8
2022-10-15T05:50:36.983Z,98.8
2022-10-15T05:51:39.180Z,98.8
2022-10-15T05:52:41.003Z,98.8
2022-10-15T05:53:43.014Z,98.8
2022-10-15T05:54:46.999Z,98.8
2022-10-15T05:55:48.986Z,98.8
2022-10-15T05:56:51.031Z,98.8
2022-10-15T05:57:52.991Z,98.8
2022-10-15T05:58:54.999Z,98.8
2022-10-15T05:59:57.002Z,98.8
2022-10-15T06:00:58.994Z,98.8
2022-10-15T06:02:01.075Z,98.8
2022-10-15T06:03:03.999Z,98.8
2022-10-15T06:04:06.004Z,98.8
2022-10-15T06:05:08.000Z,98.8
2022-10-15T06:06:10.004Z,98.8
2022-10-15T06:07:12.018Z,98.8
2022-10-15T06:08:14.007Z,98.8
2022-10-15T06:09:16.003Z,98.8
2022-10-15T06:10:18.010Z,98.8
2022-10-15T06:11:20.006Z,98.8
2022-10-15T06:12:22.011Z,98.8
2022-10-15T06:13:24.027Z,98.8
2022-10-15T06:14:26.004Z,98.8
2022-10-15T06:15:28.003Z,98.8
2022-10-15T06:16:30.011Z,98.8
2022-10-15T06:17:32.024Z,98.8
2022-10-15T06:18:34.052Z,98.8
2022-10-15T06:19:36.129Z,98.8
2022-10-15T06:20:38.063Z,98.8
2022-10-15T06:21:40.025Z,98.8
2022-10-15T06:22:44.008Z,98.8
2022-10-15T06:23:46.084Z,98.8
2022-10-15T06:24:48.015Z,98.8
2022-10-15T06:25:50.015Z,98.8
2022-10-15T06:26:52.025Z,98.8
2022-10-15T06:27:54.022Z,98.8
2022-10-15T06:28:56.084Z,98.8
2022-10-15T06:29:58.029Z,98.8
2022-10-15T06:31:00.066Z,98.8
2022-10-15T06:32:02.024Z,98.8
2022-10-15T06:33:06.072Z,98.8
2022-10-15T06:34:09.023Z,98.8
2022-10-15T06:35:11.028Z,98.8
2022-10-15T06:36:13.099Z,98.8
2022-10-15T06:37:15.022Z,98.8
2022-10-15T06:38:17.045Z,98.8
2022-10-15T06:39:19.023Z,98.8
2022-10-15T06:40:21.064Z,98.8
2022-10-15T06:41:23.051Z,98.8
2022-10-15T06:42:25.028Z,98.8
2022-10-15T06:43:31.137Z,98.8
2022-10-15T06:44:32.031Z,98.8
2022-10-15T06:45:34.030Z,98.8
2022-10-15T06:46:36.025Z,98.8
2022-10-15T06:47:39.032Z,98.8
2022-10-15T06:48:41.053Z,98.8
2022-10-15T06:49:43.043Z,98.8
2022-10-15T06:50:46.029Z,98.8
2022-10-15T06:51:48.030Z,98.8
2022-10-15T06:52:50.054Z,98.8
2022-10-15T06:53:52.060Z,98.8
2022-10-15T06:54:55.028Z,98.8
2022-10-15T06:55:57.045Z,98.8
2022-10-15T06:56:59.040Z,98.8
2022-10-15T06:58:01.044Z,98.8
2022-10-15T06:59:03.063Z,98.8
2022-10-15T07:00:05.064Z,98.8
2022-10-15T07:01:07.042Z,98.8
2022-10-15T07:02:09.044Z,98.8
2022-10-15T07:03:11.042Z,98.8
2022-10-15T07:04:13.050Z,98.8
2022-10-15T07:05:15.050Z,98.8
2022-10-15T07:06:18.052Z,98.8
2022-10-15T07:07:20.045Z,98.8
2022-10-15T07:08:22.053Z,98.8
2022-10-15T07:09:24.072Z,98.8
2022-10-15T07:10:26.190Z,98.8
2022-10-15T07:11:28.049Z,98.8
2022-10-15T07:12:30.046Z,98.8
2022-10-15T07:13:32.080Z,98.8
2022-10-15T07:14:37.528Z,98.8
2022-10-15T07:15:37.054Z,98.8
2022-10-15T07:16:39.058Z,98.8
2022-10-15T07:17:41.052Z,98.8
2022-10-15T07:18:43.169Z,98.8
2022-10-15T07:19:47.057Z,98.8
2022-10-15T07:20:49.059Z,98.8
2022-10-15T07:21:51.057Z,98.8
2022-10-15T07:22:53.095Z,98.8
2022-10-15T07:23:55.098Z,98.8
2022-10-15T07:24:57.059Z,98.8
2022-10-15T07:25:59.063Z,98.8
2022-10-15T07:27:08.055Z,98.8
2022-10-15T07:28:05.091Z,98.8
2022-10-15T07:29:07.062Z,98.8
2022-10-15T07:30:09.060Z,98.8
2022-10-15T07:31:11.067Z,98.8
2022-10-15T07:32:13.066Z,98.8
2022-10-15T07:33:15.071Z,98.8
2022-10-15T07:34:17.108Z,98.8
2022-10-15T07:35:19.070Z,98.8
2022-10-15T07:36:21.092Z,98.8
2022-10-15T07:37:23.084Z,98.8
2022-10-15T07:38:25.072Z,98.8
2022-10-15T07:39:27.067Z,98.8
2022-10-15T07:40:29.072Z,98.8
2022-10-15T07:41:31.090Z,98.8
2022-10-15T07:42:33.108Z,98.8
2022-10-15T07:43:35.105Z,98.8
2022-10-15T07:44:37.063Z,98.8
2022-10-15T07:45:39.076Z,98.8
2022-10-15T07:46:41.116Z,98.8
2022-10-15T07:47:43.102Z,98.8
2022-10-15T07:48:46.096Z,98.8
2022-10-15T07:49:48.082Z,98.8
2022-10-15T07:50:50.072Z,98.8
2022-10-15T07:51:52.270Z,98.8
2022-10-15T07:52:54.083Z,98.8
2022-10-15T07:53:56.079Z,98.8
2022-10-15T07:54:58.082Z,98.8
2022-10-15T07:56:00.111Z,98.8
2022-10-15T07:57:02.279Z,98.8
2022-10-15T07:58:04.093Z,98.8
2022-10-15T07:59:06.091Z,98.8
2022-10-15T08:00:09.091Z,98.8
2022-10-15T08:01:11.089Z,98.8
2022-10-15T08:02:13.202Z,98.8
2022-10-15T08:03:15.089Z,98.8
2022-10-15T08:04:17.089Z,98.8
2022-10-15T08:05:19.137Z,98.8
2022-10-15T08:06:21.087Z,98.8
2022-10-15T08:07:23.120Z,98.8
2022-10-15T08:08:25.089Z,98.8
2022-10-15T08:09:28.089Z,98.8
2022-10-15T08:10:30.100Z,98.8
2022-10-15T08:11:32.118Z,98.8
2022-10-15T08:12:34.136Z,98.8
2022-10-15T08:13:36.096Z,98.8
2022-10-15T08:14:38.103Z,98.8
2022-10-15T08:15:40.126Z,98.8
2022-10-15T08:16:43.109Z,98.8
2022-10-15T08:17:46.169Z,98.8
2022-10-15T08:18:48.257Z,98.8
2022-10-15T08:19:50.098Z,98.8
2022-10-15T08:20:52.130Z,98.8
2022-10-15T08:21:55.130Z,98.8
2022-10-15T08:22:57.125Z,98.8
2022-10-15T08:23:59.113Z,98.8
2022-10-15T08:25:01.176Z,98.8
2022-10-15T08:26:03.104Z,98.8
2022-10-15T08:27:05.113Z,98.8
2022-10-15T08:28:07.107Z,98.8
2022-10-15T08:29:09.139Z,98.8
2022-10-15T08:30:11.113Z,98.8
2022-10-15T08:31:13.119Z,98.8
2022-10-15T08:32:15.116Z,98.8
2022-10-15T08:33:17.108Z,98.8
2022-10-15T08:34:19.131Z,98.8
2022-10-15T08:35:21.109Z,98.8
2022-10-15T08:36:23.110Z,98.8
2022-10-15T08:37:25.116Z,98.8
2022-10-15T08:38:27.111Z,98.8
2022-10-15T08:39:29.298Z,98.8
2022-10-15T08:40:31.119Z,98.8
2022-10-15T08:41:33.140Z,98.8
2022-10-15T08:42:35.120Z,98.8
2022-10-15T08:43:38.123Z,98.8
2022-10-15T08:44:40.116Z,98.8
2022-10-15T08:45:44.173Z,98.8
2022-10-15T08:46:46.116Z,98.8
2022-10-15T08:47:48.120Z,98.8
2022-10-15T08:48:50.131Z,98.8
2022-10-15T08:49:52.143Z,98.8
2022-10-15T08:50:54.222Z,98.8
2022-10-15T08:51:56.129Z,98.8
2022-10-15T08:52:58.121Z,98.8
2022-10-15T08:54:00.128Z,98.8
2022-10-15T08:55:02.173Z,98.8
2022-10-15T08:56:04.127Z,98.8
2022-10-15T08:57:06.120Z,98.8
2022-10-15T08:58:08.187Z,98.8
2022-10-15T08:59:10.192Z,98.8
2022-10-15T09:00:12.197Z,98.8
2022-10-15T09:01:15.134Z,98.8
2022-10-15T09:02:17.132Z,98.8
2022-10-15T09:03:19.188Z,98.8
2022-10-15T09:04:21.178Z,98.8
2022-10-15T09:05:23.136Z,98.8
2022-10-15T09:06:25.137Z,98.8
2022-10-15T09:07:27.241Z,98.8
2022-10-15T09:08:29.197Z,98.8
2022-10-15T09:09:31.151Z,98.8
2022-10-15T09:10:33.133Z,98.8
2022-10-15T09:11:35.139Z,98.8
2022-10-15T09:12:37.139Z,98.8
2022-10-15T09:13:39.161Z,98.8
2022-10-15T09:14:41.140Z,98.8
2022-10-15T09:15:43.158Z,98.8
2022-10-15T09:16:46.149Z,98.8
2022-10-15T09:17:48.147Z,98.8
2022-10-15T09:18:50.164Z,98.8
2022-10-15T09:19:52.147Z,98.8
2022-10-15T09:22:11.604Z,98.8
2022-10-15T09:22:58.565Z,98.8
2022-10-15T09:24:00.682Z,98.8
2022-10-15T09:25:02.569Z,98.8
2022-10-15T09:26:05.574Z,98.8
2022-10-15T09:27:07.571Z,98.8
2022-10-15T09:28:09.562Z,98.8
2022-10-15T09:29:11.603Z,98.8
2022-10-15T09:30:13.571Z,98.8
2022-10-15T09:31:15.574Z,98.8
2022-10-15T09:32:17.575Z,98.8
2022-10-15T09:33:20.421Z,98.8
2022-10-15T09:34:22.437Z,98.8
2022-10-15T09:35:24.419Z,98.8
2022-10-15T09:36:26.407Z,98.8
2022-10-15T09:37:28.420Z,98.8
2022-10-15T09:38:30.650Z,98.8
2022-10-15T09:39:32.426Z,98.8
2022-10-15T09:40:34.418Z,98.8
2022-10-15T09:41:37.421Z,98.8
2022-10-15T09:42:39.433Z,98.8
2022-10-15T09:43:41.421Z,98.8
2022-10-15T09:44:43.437Z,98.8
2022-10-15T09:45:45.413Z,98.8
2022-10-15T09:46:47.426Z,98.8
2022-10-15T09:47:50.421Z,98.8
2022-10-15T09:48:52.425Z,98.8
2022-10-15T09:49:54.444Z,98.8
2022-10-15T09:50:56.611Z,98.8
2022-10-15T09:51:58.432Z,98.8
2022-10-15T09:53:01.428Z,98.8
2022-10-15T09:54:03.429Z,98.8
2022-10-15T09:55:05.438Z,98.8
2022-10-15T09:56:08.456Z,98.8
2022-10-15T09:57:11.451Z,98.8
2022-10-15T09:58:30.336Z,98.8
2022-10-15T10:00:30.331Z,98.8
2022-10-15T10:01:30.366Z,98.8
2022-10-15T10:02:30.509Z,98.8
2022-10-15T10:03:30.335Z,98.8
2022-10-15T10:04:30.348Z,98.8
2022-10-15T10:05:30.365Z,98.8
2022-10-15T10:06:30.352Z,98.8
2022-10-15T10:07:31.441Z,98.8
2022-10-15T10:08:33.436Z,98.8
2022-10-15T10:10:37.565Z,98.8
2022-10-15T10:11:39.457Z,98.8
2022-10-15T10:12:41.442Z,98.8
2022-10-15T10:14:45.441Z,98.8
2022-10-15T10:20:30.407Z,98.8
2022-10-15T10:24:54.016Z,98.8
2022-10-15T10:25:56.082Z,98.8
2022-10-15T10:26:58.142Z,98.8
2022-10-15T10:28:00.031Z,98.8
2022-10-15T10:29:05.218Z,98.8
2022-10-15T10:30:04.042Z,98.8
2022-10-15T10:31:06.208Z,98.8
2022-10-15T10:32:08.030Z,98.8
2022-10-15T10:33:10.014Z,98.8
2022-10-15T10:35:14.021Z,98.8
2022-10-15T10:36:16.045Z,98.8
2022-10-15T10:37:18.023Z,98.8
2022-10-15T10:38:20.031Z,98.8
2022-10-15T10:39:22.025Z,98.8
2022-10-15T10:40:24.025Z,98.8
2022-10-15T10:41:26.070Z,98.8
2022-10-15T10:42:28.024Z,98.8
2022-10-15T10:43:30.026Z,98.8
2022-10-15T10:44:33.061Z,98.8
2022-10-15T10:45:36.024Z,98.8
2022-10-15T10:46:38.034Z,98.8
2022-10-15T10:47:40.069Z,98.8
2022-10-15T10:48:42.063Z,98.8
2022-10-15T10:49:44.027Z,98.8
2022-10-15T10:50:46.054Z,98.8
2022-10-15T10:51:48.030Z,98.8
2022-10-15T10:52:50.037Z,98.8
2022-10-15T10:53:52.113Z,98.8
2022-10-15T10:54:55.049Z,98.8
2022-10-15T10:55:57.043Z,98.8
2022-10-15T10:56:59.047Z,98.8
2022-10-15T10:58:01.050Z,98.8
2022-10-15T10:59:03.093Z,98.8
2022-10-15T11:00:05.048Z,98.8
2022-10-15T11:01:07.077Z,98.8
2022-10-15T11:02:22.244Z,98.8
2022-10-15T11:03:11.074Z,98.8
2022-10-15T11:04:15.612Z,98.8
2022-10-15T11:05:15.048Z,98.8
2022-10-15T11:06:17.042Z,98.8
2022-10-15T11:07:19.047Z,98.8
2022-10-15T11:08:21.156Z,98.8
2022-10-15T11:09:23.044Z,98.8
2022-10-15T11:10:25.040Z,98.8
2022-10-15T11:11:27.052Z,98.8
2022-10-15T11:12:30.064Z,98.8
2022-10-15T11:13:34.085Z,98.8
2022-10-15T11:14:36.059Z,98.8
2022-10-15T11:15:38.055Z,98.8
2022-10-15T11:16:40.053Z,98.8
2022-10-15T11:18:30.423Z,98.8
2022-10-15T11:20:00.032Z,98.6
2022-10-15T11:20:45.562Z,98.1
2022-10-15T11:21:30.400Z,98.4
2022-10-15T11:22:30.401Z,98.8
2022-10-15T11:23:30.465Z,98.7
2022-10-15T11:24:42.477Z,98.7
2022-10-15T11:25:30.401Z,98.4
2022-10-15T11:26:37.209Z,98.5
2022-10-15T11:27:30.406Z,98.6
2022-10-15T11:28:30.460Z,98.7
2022-10-15T11:29:30.394Z,98.8
2022-10-15T11:31:16.171Z,98.3
2022-10-15T11:32:42.043Z,97.8
2022-10-15T11:33:30.424Z,97.7
2022-10-15T11:34:30.464Z,98.2
2022-10-15T11:35:51.522Z,98.4
2022-10-15T11:36:30.409Z,98.2
2022-10-15T11:37:30.408Z,97.3
2022-10-15T11:38:31.360Z,97.2
2022-10-15T11:39:33.167Z,97.5
2022-10-15T11:40:36.143Z,97.7
2022-10-15T11:41:38.129Z,97.3
2022-10-15T11:42:40.147Z,97.6
2022-10-15T11:43:42.171Z,97.7
2022-10-15T11:44:44.149Z,97.8
2022-10-15T11:45:46.148Z,97.9
2022-10-15T11:46:48.150Z,98.1
2022-10-15T11:47:50.202Z,98.3
2022-10-15T11:48:52.148Z,98.5
2022-10-15T11:49:56.154Z,98.6
2022-10-15T11:50:58.158Z,98.7
2022-10-15T11:53:03.186Z,98.8
2022-10-15T11:54:05.191Z,98.2
2022-10-15T11:55:07.157Z,97.7
2022-10-15T11:56:09.156Z,97.8
2022-10-15T11:57:11.155Z,98.2
2022-10-15T11:58:13.202Z,98.6
2022-10-15T12:00:17.160Z,98.4
2022-10-15T12:01:19.147Z,98.5
2022-10-15T12:02:21.403Z,98.3
2022-10-15T12:03:23.160Z,97.6
2022-10-15T12:04:27.723Z,97.9
2022-10-15T12:05:27.170Z,98.1
2022-10-15T12:06:29.157Z,98.1
2022-10-15T12:07:31.182Z,97.1
2022-10-15T12:08:33.181Z,97.4
2022-10-15T12:09:36.203Z,97
2022-10-15T12:10:38.164Z,96.1
2022-10-15T12:11:40.164Z,96.2
2022-10-15T12:12:43.175Z,96
2022-10-15T12:13:45.170Z,96.6
2022-10-15T12:14:47.195Z,96.2
2022-10-15T12:15:49.171Z,96.3
2022-10-15T12:16:51.165Z,96.4
2022-10-15T12:17:53.537Z,96.8
2022-10-15T12:19:57.702Z,95.7
2022-10-15T12:22:02.169Z,95.9
2022-10-15T12:23:30.443Z,96
2022-10-15T12:24:30.459Z,95.8
2022-10-15T12:25:30.485Z,95.9
2022-10-15T12:26:30.448Z,95.5
2022-10-15T12:27:30.459Z,95.5
2022-10-15T12:28:30.496Z,95.7
2022-10-15T12:29:30.459Z,95.9
2022-10-15T12:30:30.495Z,96.4
2022-10-15T12:32:23.551Z,96.9
2022-10-15T12:33:26.502Z,97.3
2022-10-15T12:34:28.509Z,97
2022-10-15T12:36:32.533Z,97.4
2022-10-15T12:37:57.089Z,97.4
2022-10-15T12:38:59.825Z,97.4
2022-10-15T12:40:01.818Z,97.5
2022-10-15T12:41:03.851Z,97.5
2022-10-15T12:44:10.720Z,97.2
2022-10-15T12:45:13.212Z,97.4
2022-10-15T12:50:42.105Z,97.1
2022-10-15T12:51:44.082Z,97.1
2022-10-15T12:58:08.556Z,96.8
2022-10-15T12:58:30.379Z,97.5
2022-10-15T13:00:41.241Z,96.1
2022-10-15T13:05:54.073Z,96.3
2022-10-15T13:07:30.533Z,95.2
2022-10-15T13:08:30.499Z,94.3
2022-10-15T13:10:03.214Z,94.6
2022-10-15T13:11:06.254Z,95.2
2022-10-15T13:12:08.226Z,95.2
2022-10-15T13:13:25.170Z,95.4
2022-10-15T13:14:27.132Z,95.2
2022-10-15T13:15:30.515Z,95.6
2022-10-15T13:17:33.320Z,95.8
2022-10-15T13:18:35.365Z,95.9
2022-10-15T13:19:37.337Z,95.6
2022-10-15T13:20:39.310Z,95.2
2022-10-15T13:21:41.319Z,95.4
2022-10-15T13:22:43.334Z,95.9
2022-10-15T13:25:35.477Z,96
2022-10-15T13:25:36.175Z,96
2022-10-15T13:26:59.486Z,96.4
2022-10-15T13:27:30.521Z,96.7
2022-10-15T13:29:18.471Z,96.9
2022-10-15T13:29:30.518Z,96.8
2022-10-15T13:30:30.492Z,96.5
2022-10-15T13:31:30.809Z,96.6
2022-10-15T13:32:30.563Z,96.7
2022-10-15T13:33:30.494Z,97
2022-10-15T13:35:30.515Z,96.5
2022-10-15T13:36:30.551Z,96.7
2022-10-15T13:37:30.512Z,96.8
2022-10-15T13:38:30.516Z,96.4
2022-10-15T13:39:30.562Z,96.4
2022-10-15T13:40:30.525Z,96.6
2022-10-15T13:41:30.542Z,96.7
2022-10-15T13:42:31.841Z,96.7
2022-10-15T13:44:38.228Z,97.1
2022-10-15T13:45:41.246Z,97.3
2022-10-15T13:46:43.262Z,97.6
2022-10-15T13:47:45.237Z,97.8
2022-10-15T13:48:47.289Z,97.9
2022-10-15T13:50:30.519Z,98.1
2022-10-15T13:51:30.502Z,98.1
2022-10-15T13:52:30.519Z,98.3
2022-10-15T13:53:30.520Z,98.2
2022-10-15T13:54:30.582Z,98.1
2022-10-15T13:55:30.520Z,97.9
2022-10-15T13:57:32.183Z,97.8
2022-10-15T13:58:30.537Z,97.9
2022-10-15T13:59:30.560Z,97.9
2022-10-15T14:00:30.589Z,97.5
2022-10-15T14:01:30.523Z,97.6
2022-10-15T14:02:30.706Z,97.6
2022-10-15T14:03:32.499Z,97.7
2022-10-15T14:09:58.276Z,97.1
2022-10-15T14:10:46.497Z,97.2
2022-10-15T14:11:57.927Z,97.3
2022-10-15T14:13:58.636Z,97.3
2022-10-15T14:15:30.562Z,97.2
2022-10-15T14:17:07.604Z,97.1
2022-10-15T14:18:09.614Z,97.1
2022-10-15T14:19:11.611Z,96.8
2022-10-15T14:20:27.018Z,96.7
2022-10-15T14:21:15.656Z,96.8
2022-10-15T14:22:17.597Z,96.9
2022-10-15T14:23:19.612Z,96.9
2022-10-15T14:24:21.632Z,97
2022-10-15T14:25:23.612Z,96.7
2022-10-15T14:26:25.636Z,97.4
2022-10-15T14:27:27.721Z,97.7
2022-10-15T14:29:31.622Z,98.1
2022-10-15T14:30:33.614Z,98.2
2022-10-15T14:31:35.652Z,98.2
2022-10-15T14:32:37.621Z,97.9
2022-10-15T14:33:39.619Z,97.8
2022-10-15T14:34:41.620Z,97.6
2022-10-15T14:35:43.618Z,97.5
2022-10-15T14:38:49.628Z,97.3
2022-10-15T14:39:51.628Z,97.1
2022-10-15T14:40:53.628Z,97.2
2022-10-15T14:41:56.630Z,97.6
2022-10-15T14:43:30.571Z,98
2022-10-15T14:44:30.648Z,97.9
2022-10-15T14:45:30.564Z,97.6
2022-10-15T14:46:30.553Z,97.6
2022-10-15T14:47:30.562Z,97.8
2022-10-15T14:48:30.560Z,97.4
2022-10-15T14:49:30.583Z,97.5
2022-10-15T14:51:16.283Z,97.6